Time;durP1;ratioP1;P1;durP2;ratioP2;P2;SDS_P1;SDS_P2;PMS_P1;PMS_P2;Temp;Humidity;BMP_temperature;BMP_pressure;BME280_temperature;BME280_humidity;BME280_pressure;Samples;Min_cycle;Max_cycle;Signal;HPM_P1;HPM_P2
2023/04/12 00:01:34;;;;;;;4.45;1.30;;;9.80;99.90;;;;;;5001463;28;20046;-79
2023/04/12 00:04:01;;;;;;;8.90;1.75;;;9.80;99.90;;;;;;5003852;28;20037;-80
2023/04/12 00:06:31;;;;;;;5.70;1.30;;;9.80;99.90;;;;;;5016862;28;20506;-79
2023/04/12 00:09:03;;;;;;;4.22;1.27;;;9.70;99.90;;;;;;5010421;28;20030;-80
2023/04/12 00:11:30;;;;;;;8.40;1.77;;;9.80;99.90;;;;;;5006895;28;20068;-80
2023/04/12 00:13:55;;;;;;;6.60;1.40;;;9.80;99.90;;;;;;5004375;28;20436;-80
2023/04/12 00:16:21;;;;;;;1.30;0.82;;;9.70;99.90;;;;;;4999274;28;20148;-80
2023/04/12 00:18:47;;;;;;;5.38;1.17;;;9.80;99.90;;;;;;5016023;28;20486;-77
2023/04/12 00:21:18;;;;;;;3.92;0.75;;;9.80;99.90;;;;;;5007156;28;20111;-77
2023/04/12 00:23:45;;;;;;;3.03;0.60;;;9.80;99.90;;;;;;5015365;28;20491;-77
2023/04/12 00:26:11;;;;;;;6.45;1.08;;;9.80;99.90;;;;;;5000423;28;20398;-77
2023/04/12 00:28:36;;;;;;;6.70;1.05;;;9.80;99.90;;;;;;5005136;28;20037;-77
2023/04/12 00:31:02;;;;;;;3.40;0.75;;;9.90;99.90;;;;;;5035525;28;20436;-78
2023/04/12 00:33:27;;;;;;;4.63;1.00;;;9.90;99.90;;;;;;5016390;28;20040;-78
2023/04/12 00:35:53;;;;;;;6.10;0.95;;;9.90;99.90;;;;;;5018205;28;20029;-77
2023/04/12 00:38:19;;;;;;;6.03;0.98;;;9.90;99.90;;;;;;4998153;28;20083;-77
2023/04/12 00:40:44;;;;;;;1.38;0.73;;;9.90;99.90;;;;;;4999307;28;20029;-77
2023/04/12 00:43:17;;;;;;;7.78;1.75;;;9.90;99.90;;;;;;5021431;28;20029;-77
2023/04/12 00:45:43;;;;;;;2.75;1.05;;;9.90;99.90;;;;;;5011995;28;20501;-77
2023/04/12 00:48:08;;;;;;;7.53;0.90;;;9.80;99.90;;;;;;5004513;28;20029;-78
2023/04/12 00:50:34;;;;;;;3.55;1.08;;;9.90;99.90;;;;;;5011868;28;20444;-77
2023/04/12 00:53:00;;;;;;;3.00;0.88;;;9.80;99.90;;;;;;4997962;28;20041;-77
2023/04/12 00:55:25;;;;;;;5.20;1.20;;;9.70;99.90;;;;;;5018574;28;20030;-78
2023/04/12 00:57:51;;;;;;;4.78;0.93;;;9.70;99.90;;;;;;5015613;28;20033;-77
2023/04/12 01:00:17;;;;;;;4.88;1.27;;;9.60;99.90;;;;;;5013731;28;20377;-77
2023/04/12 01:02:49;;;;;;;5.78;1.70;;;9.60;99.90;;;;;;5014002;28;20029;-77
2023/04/12 01:05:21;;;;;;;5.00;1.42;;;9.60;99.90;;;;;;5005882;28;20046;-77
2023/04/12 01:08:05;;;;;;;9.10;1.35;;;9.50;99.90;;;;;;4996490;28;20529;-78
2023/04/12 01:11:07;;;;;;;5.57;1.50;;;9.50;99.90;;;;;;5018516;28;20096;-77
2023/04/12 01:13:39;;;;;;;5.50;1.13;;;9.30;99.90;;;;;;5028113;28;20441;-77
2023/04/12 01:16:11;;;;;;;4.28;1.02;;;9.40;99.90;;;;;;5010005;28;20038;-77
2023/04/12 01:18:40;;;;;;;5.53;1.20;;;9.40;99.90;;;;;;5020033;28;20053;-77
2023/04/12 01:21:08;;;;;;;5.07;1.17;;;9.30;99.90;;;;;;5018893;28;20080;-76
2023/04/12 01:24:12;;;;;;;4.20;1.25;;;9.30;99.90;;;;;;4999323;28;20121;-78
2023/04/12 01:26:45;;;;;;;5.07;1.55;;;9.40;99.90;;;;;;4994784;28;20057;-78
2023/04/12 01:29:20;;;;;;;5.28;1.48;;;9.30;99.90;;;;;;5005326;28;20053;-77
2023/04/12 01:31:58;;;;;;;4.50;0.93;;;9.30;99.90;;;;;;5011569;28;20469;-78
2023/04/12 01:34:24;;;;;;;1.45;0.90;;;9.30;99.90;;;;;;5020507;28;20540;-78
2023/04/12 01:36:50;;;;;;;2.95;0.98;;;9.20;99.90;;;;;;4997997;28;20029;-77
2023/04/12 01:39:15;;;;;;;7.93;1.88;;;9.20;99.90;;;;;;4993592;28;20026;-77
2023/04/12 01:41:44;;;;;;;4.65;1.40;;;9.20;99.90;;;;;;5013486;28;20132;-77
2023/04/12 01:44:12;;;;;;;7.47;1.20;;;9.20;99.90;;;;;;5020820;28;20607;-78
2023/04/12 01:46:38;;;;;;;6.70;1.15;;;9.20;99.90;;;;;;5031472;28;20062;-77
2023/04/12 01:49:04;;;;;;;7.40;1.38;;;9.10;99.90;;;;;;5019858;28;20117;-77
2023/04/12 01:51:57;;;;;;;4.82;2.10;;;9.20;99.90;;;;;;5003992;28;20051;-78
2023/04/12 01:54:27;;;;;;;4.82;1.00;;;9.10;99.90;;;;;;5010988;28;20041;-77
2023/04/12 01:56:56;;;;;;;4.05;1.63;;;9.10;99.90;;;;;;5013643;28;20076;-77
2023/04/12 01:59:23;;;;;;;4.50;1.20;;;9.00;99.90;;;;;;5005524;28;20095;-79
2023/04/12 02:01:48;;;;;;;7.07;1.55;;;8.90;99.90;;;;;;5000192;28;20041;-77
2023/04/12 02:04:15;;;;;;;3.05;1.20;;;8.90;99.90;;;;;;5011936;28;20029;-77
2023/04/12 02:06:40;;;;;;;3.88;0.77;;;8.90;99.90;;;;;;5016898;28;20045;-77
2023/04/12 02:09:06;;;;;;;2.05;1.13;;;8.90;99.90;;;;;;4993679;28;20032;-77
2023/04/12 02:11:32;;;;;;;7.53;1.25;;;8.90;99.90;;;;;;5001974;28;20050;-76
2023/04/12 02:13:57;;;;;;;10.45;1.58;;;8.90;99.90;;;;;;5034240;28;20030;-77
2023/04/12 02:16:23;;;;;;;7.55;1.50;;;8.80;99.90;;;;;;5003945;28;20081;-78
2023/04/12 02:18:49;;;;;;;4.57;1.02;;;8.80;99.90;;;;;;5020348;28;20422;-78
2023/04/12 02:21:15;;;;;;;6.93;1.20;;;8.80;99.90;;;;;;5016188;28;20057;-79
2023/04/12 02:23:42;;;;;;;6.45;1.00;;;8.80;99.90;;;;;;5025544;28;20137;-81
2023/04/12 02:26:09;;;;;;;6.47;1.17;;;8.90;99.90;;;;;;5006559;28;20037;-79
2023/04/12 02:28:36;;;;;;;6.03;1.30;;;8.80;99.90;;;;;;5023719;28;20037;-79
2023/04/12 02:31:02;;;;;;;4.55;0.95;;;8.70;99.90;;;;;;5005055;28;20033;-79
2023/04/12 02:33:28;;;;;;;4.05;0.90;;;8.70;99.90;;;;;;5005377;28;20030;-78
2023/04/12 02:35:55;;;;;;;5.03;1.50;;;8.70;99.90;;;;;;5003663;28;20060;-78
2023/04/12 02:38:20;;;;;;;2.67;0.55;;;8.70;99.90;;;;;;5000321;28;20030;-78
2023/04/12 02:40:46;;;;;;;8.02;1.30;;;8.70;99.90;;;;;;4999741;28;20082;-77
2023/04/12 02:43:11;;;;;;;5.93;1.50;;;8.70;99.90;;;;;;5008143;28;20017;-76
2023/04/12 02:45:37;;;;;;;4.05;1.17;;;8.60;99.90;;;;;;5002081;28;20508;-77
2023/04/12 02:48:04;;;;;;;7.85;1.73;;;8.60;99.90;;;;;;5016956;28;20486;-77
2023/04/12 02:50:30;;;;;;;6.15;1.60;;;8.60;99.90;;;;;;5024293;28;20120;-78
2023/04/12 02:53:01;;;;;;;2.80;0.98;;;8.60;99.90;;;;;;5015865;28;20164;-77
2023/04/12 02:55:29;;;;;;;4.30;1.02;;;8.60;99.90;;;;;;5001018;28;20034;-79
2023/04/12 02:57:55;;;;;;;5.45;1.52;;;8.60;99.90;;;;;;5005137;28;20075;-79
2023/04/12 03:00:20;;;;;;;3.85;1.00;;;8.60;99.90;;;;;;4998706;28;20477;-80
2023/04/12 03:02:48;;;;;;;5.28;1.05;;;8.50;99.90;;;;;;5016862;28;20056;-80
2023/04/12 03:05:14;;;;;;;2.95;1.20;;;8.60;99.90;;;;;;5030409;28;20427;-80
2023/04/12 03:07:39;;;;;;;4.93;1.25;;;8.50;99.90;;;;;;5033235;28;20124;-79
2023/04/12 03:10:06;;;;;;;5.13;0.90;;;8.40;99.90;;;;;;5022535;28;20030;-79
2023/04/12 03:12:31;;;;;;;6.90;2.08;;;8.50;99.90;;;;;;5018535;28;20059;-81
2023/04/12 03:14:57;;;;;;;6.95;1.10;;;8.40;99.90;;;;;;4999277;28;20034;-79
2023/04/12 03:17:23;;;;;;;2.08;0.70;;;8.40;99.90;;;;;;5017883;28;20633;-82
2023/04/12 03:19:48;;;;;;;2.15;0.60;;;8.40;99.90;;;;;;5005085;28;20030;-80
2023/04/12 03:22:14;;;;;;;7.22;1.67;;;8.40;99.90;;;;;;5024242;28;20060;-80
2023/04/12 03:24:45;;;;;;;7.80;1.58;;;8.40;99.90;;;;;;5034315;28;20030;-81
2023/04/12 03:27:10;;;;;;;1.65;1.10;;;8.40;99.90;;;;;;5002408;28;20037;-79
2023/04/12 03:29:36;;;;;;;4.07;0.82;;;8.30;99.90;;;;;;5006597;28;20034;-79
2023/04/12 03:32:02;;;;;;;3.13;1.00;;;8.30;99.90;;;;;;5002900;28;20357;-77
2023/04/12 03:34:31;;;;;;;2.75;0.90;;;8.30;99.90;;;;;;5016595;28;20052;-80
2023/04/12 03:36:57;;;;;;;2.58;0.80;;;8.30;99.90;;;;;;5014433;28;20268;-80
2023/04/12 03:39:23;;;;;;;6.55;1.10;;;8.30;99.90;;;;;;5019391;28;20045;-81
2023/04/12 03:41:49;;;;;;;4.63;1.27;;;8.20;99.90;;;;;;5032349;28;20030;-81
2023/04/12 03:44:14;;;;;;;1.80;0.68;;;8.20;99.90;;;;;;5015030;28;20127;-81
2023/04/12 03:46:40;;;;;;;1.48;0.68;;;8.30;99.90;;;;;;5025152;28;20429;-80
2023/04/12 03:49:05;;;;;;;4.57;0.82;;;8.30;99.90;;;;;;5007862;28;20026;-80
2023/04/12 03:51:31;;;;;;;2.08;0.95;;;8.30;99.90;;;;;;5001986;28;20038;-80
2023/04/12 03:53:56;;;;;;;4.85;1.00;;;8.30;99.90;;;;;;5023740;28;20025;-81
2023/04/12 03:56:22;;;;;;;4.30;1.40;;;8.20;99.90;;;;;;4998431;28;20033;-79
2023/04/12 03:58:48;;;;;;;1.27;0.52;;;8.20;99.90;;;;;;5002299;28;20033;-80
2023/04/12 04:01:13;;;;;;;3.45;0.90;;;8.30;99.90;;;;;;5005414;28;21209;-81
2023/04/12 04:03:39;;;;;;;6.95;1.30;;;8.30;99.90;;;;;;5016622;28;20103;-81
2023/04/12 04:06:06;;;;;;;5.10;0.80;;;8.30;99.90;;;;;;4990405;28;20049;-81
2023/04/12 04:08:31;;;;;;;1.67;0.82;;;8.30;99.90;;;;;;5006012;28;20371;-81
2023/04/12 04:10:57;;;;;;;3.13;0.70;;;8.30;99.90;;;;;;5022722;28;20037;-80
2023/04/12 04:13:23;;;;;;;1.30;0.85;;;8.30;99.90;;;;;;5019178;28;20393;-81
2023/04/12 04:15:50;;;;;;;1.83;0.73;;;8.30;99.90;;;;;;5001933;28;20608;-81
2023/04/12 04:18:17;;;;;;;4.03;1.67;;;8.30;99.90;;;;;;5000988;28;20068;-81
2023/04/12 04:20:42;;;;;;;4.07;0.88;;;8.30;99.90;;;;;;5009944;28;20049;-79
2023/04/12 04:23:11;;;;;;;2.83;0.70;;;8.30;99.90;;;;;;5007832;28;20025;-81
2023/04/12 04:25:38;;;;;;;2.15;0.82;;;8.30;99.90;;;;;;5002998;28;20038;-81
2023/04/12 04:28:06;;;;;;;4.03;0.90;;;8.40;99.90;;;;;;5002945;28;20033;-78
2023/04/12 04:30:37;;;;;;;1.13;0.73;;;8.40;99.90;;;;;;5034171;28;20049;-80
2023/04/12 04:33:03;;;;;;;1.90;0.75;;;8.40;99.90;;;;;;5021294;28;20707;-80
2023/04/12 04:35:30;;;;;;;2.15;0.70;;;8.40;99.90;;;;;;5004662;28;20515;-80
2023/04/12 04:37:56;;;;;;;5.30;0.68;;;8.40;99.90;;;;;;4999242;28;20030;-80
2023/04/12 04:40:22;;;;;;;2.72;0.85;;;8.40;99.90;;;;;;4998838;28;20491;-81
2023/04/12 04:42:53;;;;;;;3.90;0.95;;;8.40;99.90;;;;;;5003659;28;20030;-82
2023/04/12 04:45:25;;;;;;;2.67;1.00;;;8.40;99.90;;;;;;5006210;28;20030;-81
2023/04/12 04:47:54;;;;;;;4.95;1.00;;;8.30;99.90;;;;;;5017938;28;20134;-80
2023/04/12 04:50:22;;;;;;;3.95;0.95;;;8.30;99.90;;;;;;5013505;28;20528;-80
2023/04/12 04:52:49;;;;;;;1.33;0.50;;;8.30;99.90;;;;;;5015519;28;20513;-81
2023/04/12 04:55:16;;;;;;;3.65;1.10;;;8.30;99.90;;;;;;5002285;28;20040;-80
2023/04/12 04:57:42;;;;;;;1.77;0.95;;;8.30;99.90;;;;;;5016226;28;20061;-80
2023/04/12 05:00:12;;;;;;;3.55;1.10;;;8.40;99.90;;;;;;5001214;28;20099;-81
2023/04/12 05:02:44;;;;;;;3.83;0.85;;;8.40;99.90;;;;;;5000074;28;20038;-81
2023/04/12 05:05:12;;;;;;;1.73;0.70;;;8.40;99.90;;;;;;5014636;28;20511;-80
2023/04/12 05:07:37;;;;;;;4.22;0.85;;;8.40;99.90;;;;;;5014354;28;20034;-81
2023/04/12 05:10:03;;;;;;;2.65;0.85;;;8.40;99.90;;;;;;5001828;28;20136;-80
2023/04/12 05:12:30;;;;;;;4.85;1.17;;;8.40;99.90;;;;;;5000192;28;20041;-81
2023/04/12 05:14:55;;;;;;;3.78;1.05;;;8.30;99.90;;;;;;5014980;28;20026;-81
2023/04/12 05:17:21;;;;;;;2.13;0.88;;;8.40;99.90;;;;;;5012231;28;20041;-80
2023/04/12 05:19:47;;;;;;;3.05;1.08;;;8.30;99.90;;;;;;5004798;28;20030;-81
2023/04/12 05:22:13;;;;;;;4.95;1.30;;;8.30;99.90;;;;;;5003283;28;20033;-81
2023/04/12 05:24:38;;;;;;;2.15;1.02;;;8.30;99.90;;;;;;5014607;28;20060;-81
2023/04/12 05:27:04;;;;;;;3.83;1.15;;;8.30;99.90;;;;;;5012700;28;20060;-81
2023/04/12 05:29:30;;;;;;;2.20;1.42;;;8.30;99.90;;;;;;5015460;28;20050;-81
2023/04/12 05:31:57;;;;;;;2.55;1.00;;;8.30;99.90;;;;;;5035293;28;20033;-81
2023/04/12 05:34:22;;;;;;;5.13;1.50;;;8.30;99.90;;;;;;5002300;28;20045;-80
2023/04/12 05:36:48;;;;;;;3.30;1.20;;;8.30;99.90;;;;;;5029371;28;20048;-80
2023/04/12 05:39:13;;;;;;;2.83;1.20;;;8.30;99.90;;;;;;4998938;28;20121;-81
2023/04/12 05:41:39;;;;;;;3.25;1.38;;;8.30;99.90;;;;;;5020655;28;20502;-80
2023/04/12 05:44:05;;;;;;;3.50;1.08;;;8.30;99.90;;;;;;4998817;28;20038;-80
2023/04/12 05:46:30;;;;;;;4.45;1.83;;;8.20;99.90;;;;;;5017984;28;20509;-80
2023/04/12 05:48:56;;;;;;;1.50;0.93;;;8.20;99.90;;;;;;5018698;28;20112;-79
2023/04/12 05:51:21;;;;;;;6.70;1.30;;;8.20;99.90;;;;;;5018249;28;21096;-79
2023/04/12 05:53:47;;;;;;;2.90;1.52;;;8.20;99.90;;;;;;4998230;28;20081;-78
2023/04/12 05:56:12;;;;;;;3.63;1.13;;;8.10;99.90;;;;;;5013927;28;20026;-79
2023/04/12 05:58:38;;;;;;;1.55;0.90;;;8.20;99.90;;;;;;5022877;28;20084;-79
2023/04/12 06:01:04;;;;;;;1.48;0.93;;;8.20;99.90;;;;;;5004936;28;20042;-78
2023/04/12 06:03:31;;;;;;;2.53;1.02;;;8.20;99.90;;;;;;5018757;28;20037;-79
2023/04/12 06:05:56;;;;;;;1.45;0.90;;;8.20;99.90;;;;;;4998155;28;20053;-79
2023/04/12 06:08:22;;;;;;;1.33;0.80;;;8.20;99.90;;;;;;4998251;28;20061;-79
2023/04/12 06:10:47;;;;;;;1.00;0.88;;;8.20;99.90;;;;;;5019472;28;20045;-79
2023/04/12 06:13:13;;;;;;;3.05;1.40;;;8.20;99.90;;;;;;4994935;28;20028;-79
2023/04/12 06:15:38;;;;;;;2.28;1.10;;;8.20;99.90;;;;;;5021927;28;20482;-79
2023/04/12 06:18:06;;;;;;;1.90;1.00;;;8.10;99.90;;;;;;5015147;28;20077;-79
2023/04/12 06:20:31;;;;;;;5.90;1.30;;;8.20;99.90;;;;;;5021358;28;20050;-78
2023/04/12 06:22:57;;;;;;;1.02;0.80;;;8.20;99.90;;;;;;5037898;28;20105;-79
2023/04/12 06:25:23;;;;;;;0.85;0.55;;;8.20;99.90;;;;;;5002855;28;20031;-79
2023/04/12 06:27:48;;;;;;;1.63;1.05;;;8.20;99.90;;;;;;5001241;28;20517;-79
2023/04/12 06:30:14;;;;;;;2.00;1.02;;;8.30;99.90;;;;;;5000156;28;20044;-79
2023/04/12 06:32:39;;;;;;;1.30;0.77;;;8.30;99.90;;;;;;5022371;28;20724;-79
2023/04/12 06:35:05;;;;;;;2.90;0.65;;;8.30;99.90;;;;;;5007150;28;20442;-79
2023/04/12 06:37:31;;;;;;;1.15;0.70;;;8.30;99.90;;;;;;5032546;28;20685;-79
2023/04/12 06:39:56;;;;;;;1.58;0.98;;;8.20;99.90;;;;;;4999613;28;20164;-80
2023/04/12 06:42:24;;;;;;;1.88;0.90;;;8.30;99.90;;;;;;5015182;28;20068;-79
2023/04/12 06:44:49;;;;;;;2.63;0.88;;;8.30;99.90;;;;;;5004649;28;20563;-78
2023/04/12 06:47:15;;;;;;;5.03;1.00;;;8.40;99.90;;;;;;4992818;28;20030;-78
2023/04/12 06:49:40;;;;;;;1.05;0.60;;;8.40;99.90;;;;;;4999630;28;20502;-78
2023/04/12 06:52:06;;;;;;;1.15;1.05;;;8.40;99.90;;;;;;5016425;28;20035;-78
2023/04/12 06:54:34;;;;;;;0.45;0.40;;;8.40;99.90;;;;;;5006643;28;20383;-79
2023/04/12 06:57:00;;;;;;;1.80;0.90;;;8.50;99.90;;;;;;5030235;28;20356;-78
2023/04/12 06:59:27;;;;;;;3.10;0.90;;;8.50;99.90;;;;;;5003114;28;20490;-78
2023/04/12 07:01:52;;;;;;;0.73;0.57;;;8.60;99.90;;;;;;4998883;28;20280;-78
2023/04/12 07:04:18;;;;;;;2.10;0.80;;;8.60;99.90;;;;;;5034002;28;20073;-79
2023/04/12 07:06:43;;;;;;;4.38;1.20;;;8.60;99.90;;;;;;5001137;28;20115;-78
2023/04/12 07:09:09;;;;;;;1.75;0.80;;;8.60;99.90;;;;;;4999861;28;20033;-79
2023/04/12 07:11:35;;;;;;;1.95;0.90;;;8.60;99.90;;;;;;5014239;28;20498;-78
2023/04/12 07:14:01;;;;;;;2.38;0.80;;;8.50;99.90;;;;;;5016960;28;20485;-79
2023/04/12 07:16:28;;;;;;;1.50;0.70;;;8.60;99.90;;;;;;4999697;28;20068;-78
2023/04/12 07:18:53;;;;;;;1.08;0.90;;;8.60;99.90;;;;;;5019163;28;20525;-77
2023/04/12 07:21:19;;;;;;;3.60;0.80;;;8.60;99.90;;;;;;5013278;28;20033;-78
2023/04/12 07:23:46;;;;;;;2.55;0.88;;;8.60;99.90;;;;;;5013473;28;20090;-78
2023/04/12 07:26:11;;;;;;;1.73;1.08;;;8.70;99.90;;;;;;5035917;28;20053;-78
2023/04/12 07:28:38;;;;;;;2.35;0.75;;;8.80;99.90;;;;;;5001595;28;20069;-78
2023/04/12 07:31:06;;;;;;;1.33;1.05;;;8.80;99.90;;;;;;4999356;28;20030;-78
2023/04/12 07:33:34;;;;;;;1.50;0.80;;;8.80;99.90;;;;;;5000395;28;20469;-78
2023/04/12 07:36:00;;;;;;;0.98;0.80;;;8.90;99.90;;;;;;5009062;28;20191;-78
2023/04/12 07:38:25;;;;;;;1.20;0.70;;;9.00;99.90;;;;;;4997786;28;20298;-78
2023/04/12 07:40:51;;;;;;;1.83;0.80;;;9.00;99.90;;;;;;5014432;28;21371;-78
2023/04/12 07:43:17;;;;;;;0.75;0.50;;;9.10;99.90;;;;;;5022877;28;20026;-78
2023/04/12 07:45:42;;;;;;;1.75;0.80;;;9.10;99.90;;;;;;5001023;28;20039;-78
2023/04/12 07:48:08;;;;;;;1.35;0.70;;;9.20;99.90;;;;;;4990143;28;20033;-78
2023/04/12 07:50:34;;;;;;;1.33;0.77;;;9.20;99.90;;;;;;5028333;28;20413;-78
2023/04/12 07:53:22;;;;;;;0.55;0.30;;;9.20;99.90;;;;;;5015359;28;20438;-78
2023/04/12 07:55:48;;;;;;;1.40;0.55;;;9.10;99.90;;;;;;5013376;28;20030;-78
2023/04/12 07:58:14;;;;;;;2.78;0.60;;;9.10;99.90;;;;;;5003439;28;20033;-78
2023/04/12 08:00:40;;;;;;;0.95;0.32;;;9.10;99.90;;;;;;5000134;28;20176;-78
2023/04/12 08:03:05;;;;;;;0.95;0.68;;;9.10;99.90;;;;;;4992376;28;20494;-78
2023/04/12 08:05:31;;;;;;;0.68;0.57;;;9.20;99.90;;;;;;5004005;28;20034;-78
2023/04/12 08:07:56;;;;;;;1.83;0.60;;;9.20;99.90;;;;;;5010614;28;20382;-78
2023/04/12 08:10:22;;;;;;;1.95;0.73;;;9.20;99.90;;;;;;4999112;28;20037;-78
2023/04/12 08:12:48;;;;;;;1.30;0.95;;;9.20;99.90;;;;;;5031576;28;20081;-78
2023/04/12 08:15:13;;;;;;;0.93;0.68;;;9.20;99.90;;;;;;5003559;28;20026;-77
2023/04/12 08:17:41;;;;;;;1.67;0.65;;;9.20;99.90;;;;;;5012047;28;20044;-77
2023/04/12 08:20:07;;;;;;;2.40;0.45;;;9.30;99.90;;;;;;4998320;28;20030;-77
2023/04/12 08:22:32;;;;;;;1.30;0.57;;;9.20;99.90;;;;;;4998706;28;20554;-79
2023/04/12 08:24:58;;;;;;;1.60;0.70;;;9.20;99.90;;;;;;4999557;28;20038;-77
2023/04/12 08:27:23;;;;;;;0.40;0.38;;;9.20;99.90;;;;;;4999026;28;20030;-78
2023/04/12 08:29:49;;;;;;;1.52;0.60;;;9.20;99.90;;;;;;5004342;28;20537;-79
2023/04/12 08:32:14;;;;;;;1.27;0.50;;;9.20;99.90;;;;;;5025927;28;20040;-78
2023/04/12 08:34:40;;;;;;;1.52;0.60;;;9.30;99.90;;;;;;5017112;28;20033;-79
2023/04/12 08:37:06;;;;;;;0.77;0.45;;;9.30;99.90;;;;;;5004690;28;20057;-78
2023/04/12 08:39:32;;;;;;;2.05;0.40;;;9.30;99.90;;;;;;5014317;28;20532;-78
2023/04/12 08:41:57;;;;;;;0.75;0.60;;;9.40;99.90;;;;;;4995956;28;20033;-78
2023/04/12 08:44:37;;;;;;;0.60;0.38;;;9.40;99.90;;;;;;5000237;28;20069;-79
2023/04/12 08:47:04;;;;;;;2.30;0.35;;;9.50;99.90;;;;;;4990510;28;20072;-79
2023/04/12 08:49:33;;;;;;;2.15;0.60;;;9.50;99.90;;;;;;5015701;28;20036;-80
2023/04/12 08:52:06;;;;;;;1.13;0.60;;;9.60;99.90;;;;;;4997775;28;20048;-79
2023/04/12 08:54:32;;;;;;;0.57;0.40;;;9.60;99.90;;;;;;5017411;28;20555;-79
2023/04/12 08:57:00;;;;;;;1.63;0.70;;;9.70;99.90;;;;;;5009418;28;20025;-80
2023/04/12 08:59:26;;;;;;;1.08;0.40;;;9.70;99.90;;;;;;5000864;28;20041;-79
2023/04/12 09:01:52;;;;;;;1.27;0.70;;;9.80;99.90;;;;;;4996320;28;20034;-80
2023/04/12 09:04:17;;;;;;;2.08;0.43;;;9.80;99.90;;;;;;5001639;28;20038;-79
2023/04/12 09:06:43;;;;;;;1.00;0.60;;;9.80;99.90;;;;;;5013259;28;20069;-79
2023/04/12 09:09:08;;;;;;;0.80;0.50;;;9.90;99.90;;;;;;5005742;28;20041;-79
2023/04/12 09:11:35;;;;;;;1.33;0.40;;;10.00;99.90;;;;;;5016359;28;20037;-79
2023/04/12 09:14:00;;;;;;;0.77;0.50;;;10.00;99.90;;;;;;5018086;28;20033;-79
2023/04/12 09:16:39;;;;;;;1.10;0.60;;;10.10;99.90;;;;;;4992897;28;20036;-80
2023/04/12 09:19:05;;;;;;;1.50;0.50;;;10.10;99.90;;;;;;5010790;28;20641;-78
2023/04/12 09:21:33;;;;;;;0.30;0.25;;;10.00;99.90;;;;;;5001814;28;20033;-78
2023/04/12 09:24:09;;;;;;;1.10;0.57;;;10.00;99.90;;;;;;5002365;28;20029;-80
2023/04/12 09:26:35;;;;;;;;;;;10.00;99.90;;;;;;5024304;28;20721;-79
2023/04/12 09:29:01;;;;;;;0.87;0.30;;;10.20;99.90;;;;;;5021383;28;19951;-79
2023/04/12 09:31:27;;;;;;;0.55;0.45;;;10.20;99.90;;;;;;5003669;28;20356;-78
2023/04/12 09:33:52;;;;;;;0.68;0.30;;;10.30;99.90;;;;;;5002586;28;20482;-79
2023/04/12 09:36:18;;;;;;;0.60;0.43;;;10.30;99.90;;;;;;5020836;28;20056;-77
2023/04/12 09:39:03;;;;;;;0.68;0.40;;;10.40;99.90;;;;;;4990153;28;20041;-80
2023/04/12 09:41:30;;;;;;;1.20;0.40;;;10.50;99.90;;;;;;4992254;28;20117;-78
2023/04/12 09:43:57;;;;;;;1.20;0.65;;;10.60;99.90;;;;;;5007891;28;20034;-80
2023/04/12 09:46:23;;;;;;;1.75;0.50;;;10.70;99.90;;;;;;5021886;28;20034;-81
2023/04/12 09:48:50;;;;;;;0.90;0.52;;;10.80;99.90;;;;;;5007163;28;20025;-80
2023/04/12 09:51:28;;;;;;;2.05;0.60;;;10.80;99.90;;;;;;5008077;28;20031;-80
2023/04/12 09:54:01;;;;;;;0.93;0.30;;;10.80;99.90;;;;;;5020369;28;20061;-80
2023/04/12 09:56:30;;;;;;;0.90;0.60;;;10.70;99.90;;;;;;5025835;28;20481;-79
2023/04/12 09:59:01;;;;;;;0.60;0.40;;;10.80;99.90;;;;;;5005534;28;20080;-79
2023/04/12 10:01:28;;;;;;;0.65;0.40;;;10.70;99.90;;;;;;5003300;28;22816;-80
2023/04/12 10:03:53;;;;;;;2.10;0.55;;;10.80;99.90;;;;;;5006365;28;20124;-80
2023/04/12 10:06:21;;;;;;;0.68;0.40;;;10.90;99.90;;;;;;5001227;28;20117;-79
2023/04/12 10:08:46;;;;;;;1.27;0.57;;;11.10;99.90;;;;;;5033088;28;20109;-81
2023/04/12 10:11:12;;;;;;;0.90;0.60;;;11.20;99.90;;;;;;5007079;28;20137;-81
2023/04/12 10:13:37;;;;;;;0.47;0.47;;;11.30;99.90;;;;;;5023227;28;20100;-81
2023/04/12 10:16:04;;;;;;;0.75;0.75;;;11.40;99.90;;;;;;5024082;28;20497;-80
2023/04/12 10:18:29;;;;;;;0.75;0.68;;;11.70;99.90;;;;;;5030342;28;20026;-79
2023/04/12 10:20:55;;;;;;;0.93;0.50;;;11.60;99.90;;;;;;5022083;28;20042;-79
2023/04/12 10:23:21;;;;;;;1.05;0.68;;;11.90;99.90;;;;;;5017224;28;20072;-79
2023/04/12 10:25:46;;;;;;;1.80;0.90;;;12.10;99.90;;;;;;5008362;28;20017;-79
2023/04/12 10:28:16;;;;;;;0.60;0.60;;;12.40;99.90;;;;;;4992104;28;20029;-80
2023/04/12 10:30:41;;;;;;;0.50;0.50;;;12.80;99.90;;;;;;5021369;28;20498;-79
2023/04/12 10:33:12;;;;;;;0.70;0.40;;;13.10;99.90;;;;;;5008316;28;20033;-80
2023/04/12 10:35:47;;;;;;;0.50;0.50;;;13.00;99.90;;;;;;5012017;28;20044;-80
2023/04/12 10:38:12;;;;;;;1.33;0.73;;;13.00;99.90;;;;;;5030233;28;20207;-80
2023/04/12 10:40:38;;;;;;;0.73;0.63;;;13.00;99.90;;;;;;5033122;28;20116;-80
2023/04/12 10:43:22;;;;;;;0.80;0.75;;;13.10;99.90;;;;;;5030987;28;20171;-80
2023/04/12 10:45:50;;;;;;;0.95;0.30;;;13.30;99.90;;;;;;5034147;28;20026;-80
2023/04/12 10:48:35;;;;;;;0.70;0.70;;;13.60;99.90;;;;;;5008106;28;20120;-79
2023/04/12 10:51:24;;;;;;;0.70;0.63;;;13.30;99.90;;;;;;5026298;28;20067;-80
2023/04/12 10:53:52;;;;;;;0.77;0.73;;;13.30;99.90;;;;;;5007275;28;20083;-79
2023/04/12 10:56:32;;;;;;;0.73;0.70;;;13.30;99.90;;;;;;5005189;28;20686;-80
2023/04/12 10:58:59;;;;;;;0.70;0.52;;;13.00;99.90;;;;;;5036297;28;20042;-80
2023/04/12 11:01:25;;;;;;;0.52;0.52;;;13.00;99.90;;;;;;5024324;28;20135;-80
2023/04/12 11:04:16;;;;;;;0.30;0.30;;;13.00;99.90;;;;;;5018937;28;20030;-80
2023/04/12 11:07:01;;;;;;;0.60;0.60;;;12.80;99.90;;;;;;5029931;28;20482;-80
2023/04/12 11:09:32;;;;;;;0.57;0.40;;;12.70;99.90;;;;;;5004556;28;20458;-81
2023/04/12 11:12:04;;;;;;;0.60;0.60;;;12.60;99.90;;;;;;5024011;28;20335;-80
2023/04/12 11:14:36;;;;;;;0.63;0.63;;;12.70;99.90;;;;;;5015389;28;20474;-81
2023/04/12 11:17:07;;;;;;;0.70;0.70;;;12.60;99.90;;;;;;5017646;28;20064;-80
2023/04/12 11:19:55;;;;;;;1.00;0.52;;;12.60;99.90;;;;;;5017612;28;20069;-80
2023/04/12 11:22:22;;;;;;;1.17;0.80;;;12.70;99.90;;;;;;5000387;28;20037;-81
2023/04/12 11:24:50;;;;;;;1.48;0.90;;;12.70;99.90;;;;;;4998890;28;20486;-81
2023/04/12 11:27:17;;;;;;;1.92;1.35;;;12.70;99.90;;;;;;4992777;28;20497;-81
2023/04/12 11:29:43;;;;;;;1.27;1.00;;;12.40;99.90;;;;;;5029951;28;20101;-80
2023/04/12 11:32:12;;;;;;;1.35;0.70;;;12.70;99.90;;;;;;5015620;28;20464;-80
2023/04/12 11:34:38;;;;;;;1.17;1.00;;;12.80;99.90;;;;;;5016472;28;20119;-80
2023/04/12 11:37:06;;;;;;;4.28;1.50;;;12.70;99.90;;;;;;5017414;28;20492;-80
2023/04/12 11:39:32;;;;;;;2.20;1.42;;;12.70;99.90;;;;;;5004626;28;20030;-81
2023/04/12 11:41:58;;;;;;;3.28;1.40;;;12.60;99.90;;;;;;5023398;28;20018;-81
2023/04/12 11:44:24;;;;;;;3.42;1.83;;;12.50;99.90;;;;;;5006363;28;20067;-81
2023/04/12 11:46:49;;;;;;;4.20;1.83;;;12.60;99.90;;;;;;5000591;28;20026;-80
2023/04/12 11:49:16;;;;;;;3.45;1.45;;;12.70;99.90;;;;;;5022335;28;20096;-80
2023/04/12 11:51:45;;;;;;;8.80;1.88;;;12.80;99.90;;;;;;5001662;28;20071;-80
2023/04/12 11:54:11;;;;;;;2.13;1.08;;;13.00;99.90;;;;;;5024938;28;20470;-80
2023/04/12 11:56:37;;;;;;;2.72;1.23;;;13.20;99.90;;;;;;5006630;28;20030;-82
2023/04/12 11:59:03;;;;;;;1.73;0.95;;;13.30;99.90;;;;;;5008969;28;20356;-80
2023/04/12 12:01:28;;;;;;;7.65;1.80;;;13.50;99.90;;;;;;5017509;28;20034;-81
2023/04/12 12:03:54;;;;;;;8.18;1.85;;;13.70;99.90;;;;;;5017500;28;20109;-81
2023/04/12 12:06:21;;;;;;;5.57;1.77;;;14.00;99.90;;;;;;5015371;28;20517;-81
2023/04/12 12:08:48;;;;;;;4.68;1.30;;;14.10;99.90;;;;;;5014060;28;20021;-81
2023/04/12 12:11:14;;;;;;;2.55;1.10;;;14.30;99.90;;;;;;4992028;28;20041;-80
2023/04/12 12:13:46;;;;;;;18.35;3.90;;;14.50;99.90;;;;;;5002449;28;20035;-81
2023/04/12 12:16:12;;;;;;;5.03;1.42;;;14.70;99.90;;;;;;4994462;28;20432;-80
2023/04/12 12:18:44;;;;;;;7.40;2.03;;;14.90;99.90;;;;;;5006451;28;20183;-81
2023/04/12 12:21:13;;;;;;;4.15;1.83;;;15.10;99.90;;;;;;5023871;28;20032;-80
2023/04/12 12:23:44;;;;;;;13.60;2.47;;;15.20;99.90;;;;;;5018938;28;20596;-81
2023/04/12 12:26:09;;;;;;;6.05;1.30;;;15.40;99.90;;;;;;5031426;28;20036;-81
2023/04/12 12:28:38;;;;;;;4.20;1.30;;;15.50;99.90;;;;;;4998282;28;20037;-81
2023/04/12 12:31:11;;;;;;;6.93;1.30;;;15.80;99.90;;;;;;5000342;28;20057;-80
2023/04/12 12:33:37;;;;;;;5.72;1.50;;;15.90;99.90;;;;;;5002193;28;20037;-79
2023/04/12 12:36:02;;;;;;;3.33;1.20;;;16.20;99.90;;;;;;5017003;28;20032;-80
2023/04/12 12:38:35;;;;;;;4.00;1.40;;;16.30;99.90;;;;;;5019675;28;20512;-80
2023/04/12 12:41:33;;;;;;;4.93;1.40;;;16.50;99.90;;;;;;5001736;28;20489;-79
2023/04/12 12:43:59;;;;;;;6.20;1.30;;;16.60;99.90;;;;;;4965109;28;20657;-79
2023/04/12 12:46:25;;;;;;;4.80;1.40;;;17.00;99.90;;;;;;5002595;28;20124;-80
2023/04/12 12:48:50;;;;;;;2.83;1.27;;;17.10;99.90;;;;;;5018499;28;20476;-79
2023/04/12 12:51:19;;;;;;;4.72;1.20;;;17.20;99.90;;;;;;4990848;28;20032;-80
2023/04/12 12:53:45;;;;;;;5.53;1.17;;;17.30;99.90;;;;;;5014649;28;20038;-78
2023/04/12 12:56:11;;;;;;;3.20;1.20;;;17.50;99.90;;;;;;5004158;28;20101;-79
2023/04/12 12:58:37;;;;;;;3.35;0.95;;;17.60;99.90;;;;;;5031704;28;20490;-79